Station info - map view · info · telemetry · weather · raw · status · beacons · messages · bulletins · browse · moving · my account
Callsign, ship name or locator: Clear       
It is possible to search using wildcards (*?) after a prefix. Example: OH*
APRS station KE0L-9 - show graphs
Map loading...
Comment: 146.520MHz 146.520
Mic-E message: In service
Location: 35°11.76' N 84°53.56' W - locator EM75NE27VA - show map - static map
2.7 miles North bearing 340° from Cleveland, Bradley County, Tennessee, United States [?]
4.0 miles North bearing 343° from South Cleveland, Bradley County, Tennessee, United States
25.7 miles Northeast bearing 66° from Chattanooga, Hamilton County, Tennessee, United States
75.9 miles Southwest bearing 226° from Knoxville, Knox County, Tennessee, United States
Last position: 2019-11-15 15:03:19 EST (6d 2h5m ago)
2019-11-15 15:03:19 EST local time at Cleveland, United States [?]
Altitude: 732 ft
Course: 289°
Speed: 37 MPH
Device: Yaesu: FTM-400DR (rig)
Last path: KE0L-9>S5QQ7V via WIDE1-1,WIDE2-1,qAR,N4YH-10 (good)
Positions stored: 1682
Other SSIDs: KE0L
Stations near current position of KE0L-9 - show more
callsign distance last heard - EST      callsign distance last heard - EST
WM4RB-101.0 miles 107°2019-11-21 16:48:55 WM4RB-WX1.7 miles 138°2019-11-21 17:06:28
KK4BXE-11.7 miles 138°2019-11-21 17:06:28 KD5UBL-91.8 miles 137°2019-11-06 11:38:07
WM4RB-91.9 miles 157°2019-11-20 08:01:51 KK4YEM B2.0 miles 112°2019-11-19 13:04:44
KK4YEM-B2.0 miles 112°2019-11-19 13:04:54 WM4RB2.3 miles 250°2019-11-21 17:01:04
KK4YEM-52.4 miles 70°2019-11-06 20:45:59 KK4YEM-42.5 miles 110°2019-11-06 18:48:38
444.2753.8 miles 153°2019-11-21 17:04:12 EW71983.9 miles 150°2019-11-21 17:06:40
146.9253.9 miles 153°2019-11-21 17:02:42 KK4BXE B4.0 miles 153°2019-11-21 17:05:53
KK4BXE C4.0 miles 153°2019-11-21 17:05:54 KK4BXE-C4.0 miles 153°2019-11-21 17:05:39
KK4BXE-B4.0 miles 153°2019-11-21 17:05:39 W4GZX4.0 miles 152°2019-11-21 16:43:24
KN4CQE-94.1 miles 140°2019-10-31 17:53:43 KJ4YYX-85.0 miles 164°2019-11-21 16:38:47
Stations which heard KE0L-9 directly on radio –
callsign pkts first heard - EST last heard longest (tx => rx) longest at - EST
NS9RC 1 2019-11-09 13:06:26 2019-11-09 13:06:26 EN62BB > EN62CC 4.0 miles 62° 2019-11-09 13:06:26
KB9YEP-10 1 2019-11-09 16:25:38 2019-11-09 16:25:38 EM59TJ > EM59TL 5.8 miles 12° 2019-11-09 16:25:38
W9QL 19 2019-11-07 10:12:01 2019-11-09 12:45:26 EN62AI > EN62AJ 2.5 miles 290° 2019-11-07 13:30:44
AB9FX 1 2019-11-09 13:11:51 2019-11-09 13:11:51 EN61BX > EN61BX 1.4 miles 108° 2019-11-09 13:11:51
N9OQW 7 2019-11-09 15:18:20 2019-11-09 16:14:53 EM59UO > EM69AV 29.0 miles 45° 2019-11-09 16:14:53
WB4BSD 4 2019-11-09 22:50:20 2019-11-15 14:57:42 EM75LB > EM75MD 9.4 miles 71° 2019-11-09 22:50:20
NS9RC-5 4 2019-11-07 10:43:54 2019-11-07 12:35:13 EN62AH > EN62CF 10.2 miles 123° 2019-11-07 10:43:54
KA4EMA-3 14 2019-11-09 22:34:20 2019-11-15 14:42:28 EM75LD > EM75IE 15.0 miles 292° 2019-11-09 22:59:16
W9AZ-1 14 2019-11-09 13:53:46 2019-11-09 14:21:24 EN61CI > EN61BC 17.4 miles 196° 2019-11-09 13:53:46
W9AZ-2 6 2019-11-09 13:25:09 2019-11-09 13:49:46 EN61BS > EN61DK 23.0 miles 157° 2019-11-09 13:25:09
K4UAN-3 3 2019-11-09 21:32:00 2019-11-09 21:41:54 EM65XJ > EM76HB 58.5 miles 37° 2019-11-09 21:41:54
K5OLV-2 2 2019-11-09 22:23:35 2019-11-09 22:24:34 EM74GX > EM74GU 6.9 miles 186° 2019-11-09 22:23:35
N4YH-10 30 2019-11-09 22:52:18 2019-11-15 15:03:19 EM75NF > EM75JI 19.3 miles 297° 2019-11-09 23:09:35
AD9OV-15 7 2019-11-09 16:55:24 2019-11-09 17:16:11 EM58QW > EM58HV 41.3 miles 265° 2019-11-09 16:55:24
N9ETH 8 2019-11-07 10:42:17 2019-11-07 13:10:00 EN62BF > EN52WG 11.1 miles 284° 2019-11-07 13:07:29
KC8RFE-1 4 2019-11-09 15:08:40 2019-11-09 15:14:17 EN50UE > EN50UC 4.5 miles 217° 2019-11-09 15:08:40
KC8RFE-2 8 2019-11-09 14:50:48 2019-11-09 15:04:38 EN50WL > EN50WH 11.3 miles 192° 2019-11-09 14:50:48
KC0AHK-1 4 2019-11-09 13:28:05 2019-11-09 13:32:35 EN61CR > EN61DR 5.0 miles 112° 2019-11-09 13:28:05
K9IQP-13 83 2019-11-07 10:12:52 2019-11-09 13:03:21 EN62BC > EN62AH 12.6 miles 342° 2019-11-09 13:03:21
WA9SGF-2 1 2019-11-09 13:19:11 2019-11-09 13:19:11 EN61AU > EN61BT 4.0 miles 126° 2019-11-09 13:19:11
K4EGC-1 1 2019-11-09 21:37:52 2019-11-09 21:37:52 EM65XL > EM65WJ 4.9 miles 221° 2019-11-09 21:37:52
KC9OZA-10 10 2019-11-09 16:23:37 2019-11-09 17:03:29 EM59TK > EM58WS 46.7 miles 163° 2019-11-09 16:23:37
KC8RFE-3 12 2019-11-09 15:16:19 2019-11-09 16:16:54 EM59UN > EN50PA 38.4 miles 331° 2019-11-09 16:16:54
KD9BBB-1 4 2019-11-09 12:54:24 2019-11-09 13:03:52 EN62BG > EN62BD 8.6 miles 160° 2019-11-09 12:54:59
N4LMC-3 6 2019-11-09 22:25:32 2019-11-15 14:47:34 EM75JF > EM74HU 27.5 miles 200° 2019-11-15 14:18:47
KC9VIX-3 1 2019-11-09 13:20:04 2019-11-09 13:20:04 EN61AU > EN61AT 5.2 miles 219° 2019-11-09 13:20:04

Only position packets which were originated by the station are shown here. The range statistics show some extra long hops, because some digipeaters do not correctly add themselves to the digipeater path. Please check the raw packets.
About this site
This page shows real-time information collected from the Automatic Position Reporting System Internet network (APRS-IS). APRS is used by amateur (ham) radio operators to transmit real-time position information, weather data, telemetry and messages over the radio. A vehicle equipped with a GPS receiver, a VHF transmitter or HF transceiver and a small computer device called a tracker transmits it's location, speed and course in a small data packet, which is then received by a nearby iGate receiving site which forwards the packet on the Internet. Systems connected to the Internet can send information on the APRS-IS without a radio transmitter, or collect and display information transmitted anywhere in the world.
User guide · FAQ · Blog · Discussion group · Linking to aprs.fi · AIS sites · Service status · Database statistics · Advertising on aprs.fi · Technical details · API · Change log · Planned changes · Credits and thanks · Terms Of Service · iPhone/iPad APRS